To NAV CANADA Home Page Login to a new session Search on AWWS site Feedback and Comments Disclaimer Vers la page française équivalente Tips FAQ What's new on the site To the Forecasts and Observations / NOTAM section To "File a Flight Plan" website Publications and other links Update of the User's profile FIC Telephone Numbers My Weather Data Folder Route Weather Data Regional Weather Data Local Weather Data To the Forecasts and Observations / NOTAM section
Request Generated 08/24/2016 at 01:29:06 UTC . Weather information available at that time is displayed.

METAR/TAF

ABBOTSFORD/BC    

METAR CYXX 240100Z 21008KT 30SM FEW060 FEW220 26/12 A3014 RMK CU1CI1
SLP208 DENSITY ALT 1200FT=
METAR CYXX 240000Z 21010KT 30SM FEW060 FEW220 26/12 A3015 RMK CU1CI1
SLP210 DENSITY ALT 1200FT=
METAR CYXX 232300Z 23010KT 210V270 30SM FEW060 FEW220 26/12 A3015 RMK
CU1CI1 SLP211 DENSITY ALT 1200FT=

TAF CYXX 232342Z 2400/2424 24008KT P6SM FEW060 FEW220
BECMG 2402/2404 VRB03KT
FM241200 34006KT P6SM FEW220
BECMG 2418/2420 28012KT
RMK NXT FCST BY 240600Z=
Your time UTC time
Weather data provided by Environment Canada and NAV CANADA